createdAt,value
2019-02-24T00:00:40.447Z,11.80
2019-02-24T00:03:09.386Z,12.83
2019-02-24T00:05:37.859Z,11.87
2019-02-24T00:08:06.483Z,10.53
2019-02-24T00:10:35.015Z,11.20
2019-02-24T00:13:03.747Z,10.63
2019-02-24T00:15:32.600Z,10.70
2019-02-24T00:18:01.336Z,10.73
2019-02-24T00:20:30.062Z,10.53
2019-02-24T00:22:58.547Z,11.00
2019-02-24T00:25:27.507Z,10.13
2019-02-24T00:27:56.527Z,10.97
2019-02-24T00:30:25.031Z,10.87
2019-02-24T00:32:53.615Z,10.03
2019-02-24T00:35:22.479Z,9.83
2019-02-24T00:37:52.375Z,10.17
2019-02-24T00:40:21.487Z,10.57
2019-02-24T00:42:49.979Z,9.40
2019-02-24T00:45:18.995Z,9.27
2019-02-24T00:47:47.569Z,8.53
2019-02-24T00:50:16.347Z,8.77
2019-02-24T00:52:45.202Z,8.93
2019-02-24T00:55:13.872Z,7.63
2019-02-24T00:57:42.599Z,9.40
2019-02-24T01:00:11.250Z,8.75
2019-02-24T01:02:40.191Z,8.33
2019-02-24T01:05:09.314Z,8.03
2019-02-24T01:10:37.131Z,8.07
2019-02-24T01:13:06.307Z,8.23
2019-02-24T01:15:35.195Z,8.10
2019-02-24T01:18:04.038Z,8.20
2019-02-24T01:20:33.264Z,8.27
2019-02-24T01:23:01.763Z,8.13
2019-02-24T01:25:30.614Z,7.97
2019-02-24T01:27:59.799Z,7.83
2019-02-24T01:30:28.396Z,8.67
2019-02-24T01:32:56.950Z,8.37
2019-02-24T01:35:25.594Z,8.50
2019-02-24T01:37:54.437Z,7.80
2019-02-24T01:40:23.122Z,8.13
2019-02-24T01:42:51.694Z,7.87
2019-02-24T01:45:20.180Z,6.30
2019-02-24T01:47:49.018Z,6.83
2019-02-24T01:50:17.770Z,7.47
2019-02-24T01:52:46.851Z,7.60
2019-02-24T01:55:15.406Z,7.97
2019-02-24T01:57:43.880Z,7.97
2019-02-24T02:00:12.766Z,8.50
2019-02-24T02:02:41.326Z,8.40
2019-02-24T02:05:09.838Z,8.60
2019-02-24T02:07:38.324Z,8.10
2019-02-24T02:10:06.916Z,8.00
2019-02-24T02:12:35.386Z,8.07
2019-02-24T02:15:03.914Z,8.00
2019-02-24T02:17:32.390Z,7.57
2019-02-24T02:20:00.942Z,7.47
2019-02-24T02:22:29.482Z,6.73
2019-02-24T02:24:57.966Z,8.23
2019-02-24T02:27:26.418Z,7.27
2019-02-24T02:29:55.554Z,6.90
2019-02-24T02:32:24.122Z,7.23
2019-02-24T02:34:53.106Z,6.67
2019-02-24T02:37:21.859Z,7.50
2019-02-24T02:39:51.049Z,6.87
2019-02-24T02:42:19.841Z,7.23
2019-02-24T02:44:48.306Z,7.20
2019-02-24T02:47:16.786Z,7.17
2019-02-24T02:49:45.630Z,7.63
2019-02-24T02:52:14.426Z,8.45
2019-02-24T02:54:43.845Z,8.23
2019-02-24T02:57:12.571Z,8.53
2019-02-24T02:59:41.663Z,7.63
2019-02-24T03:02:10.270Z,7.47
2019-02-24T03:04:39.334Z,7.63
2019-02-24T03:07:12.542Z,8.43
2019-02-24T03:09:41.350Z,7.80
2019-02-24T03:12:10.481Z,7.70
2019-02-24T03:14:39.203Z,7.50
2019-02-24T03:17:07.702Z,6.93
2019-02-24T03:19:36.533Z,7.13
2019-02-24T03:22:05.010Z,6.97
2019-02-24T03:24:33.798Z,7.90
2019-02-24T03:27:02.370Z,7.80
2019-02-24T03:29:30.897Z,6.70
2019-02-24T03:31:59.487Z,7.27
2019-02-24T03:34:28.017Z,7.47
2019-02-24T03:36:56.474Z,6.90
2019-02-24T03:39:25.657Z,7.30
2019-02-24T03:41:54.198Z,7.60
2019-02-24T03:44:22.738Z,7.17
2019-02-24T03:46:51.410Z,7.63
2019-02-24T03:49:19.992Z,7.70
2019-02-24T03:51:48.499Z,7.77
2019-02-24T03:54:17.039Z,7.50
2019-02-24T03:56:46.338Z,7.97
2019-02-24T03:59:15.548Z,7.40
2019-02-24T04:01:44.130Z,7.57
2019-02-24T04:04:12.631Z,7.27
2019-02-24T04:06:41.117Z,7.50
2019-02-24T04:09:10.002Z,7.97
2019-02-24T04:11:38.959Z,7.47
2019-02-24T04:14:07.874Z,7.93
2019-02-24T04:16:36.357Z,8.53
2019-02-24T04:19:04.853Z,8.67
2019-02-24T04:21:33.621Z,7.83
2019-02-24T04:24:02.108Z,7.73
2019-02-24T04:26:30.998Z,8.07
2019-02-24T04:28:59.550Z,8.07
2019-02-24T04:31:28.177Z,9.20
2019-02-24T04:33:56.661Z,8.67
2019-02-24T04:36:25.165Z,8.20
2019-02-24T04:38:53.637Z,8.93
2019-02-24T04:41:22.118Z,9.43
2019-02-24T04:43:50.951Z,9.10
2019-02-24T04:46:19.457Z,9.50
2019-02-24T04:48:48.247Z,8.20
2019-02-24T04:51:16.769Z,7.73
2019-02-24T04:53:45.548Z,8.07
2019-02-24T04:56:14.083Z,8.37
2019-02-24T04:58:42.881Z,7.20
2019-02-24T05:01:11.393Z,8.70
2019-02-24T05:03:40.662Z,8.63
2019-02-24T05:06:09.138Z,9.27
2019-02-24T05:08:38.036Z,9.90
2019-02-24T05:11:06.565Z,8.57
2019-02-24T05:13:35.737Z,8.60
2019-02-24T05:16:05.441Z,8.90
2019-02-24T05:18:33.961Z,8.23
2019-02-24T05:21:02.868Z,9.10
2019-02-24T05:23:31.544Z,8.97
2019-02-24T05:26:01.129Z,8.83
2019-02-24T05:28:29.901Z,9.23
2019-02-24T05:30:58.695Z,9.17
2019-02-24T05:33:27.445Z,9.57
2019-02-24T05:35:55.921Z,9.23
2019-02-24T05:38:24.501Z,8.67
2019-02-24T05:40:53.501Z,8.80
2019-02-24T05:43:22.176Z,8.50
2019-02-24T05:45:50.942Z,8.63
2019-02-24T05:48:19.468Z,9.10
2019-02-24T05:50:48.020Z,9.33
2019-02-24T05:53:16.784Z,9.80
2019-02-24T05:55:45.236Z,9.43
2019-02-24T05:58:13.748Z,9.30
2019-02-24T06:00:42.212Z,9.13
2019-02-24T06:03:10.735Z,8.90
2019-02-24T06:05:39.912Z,8.57
2019-02-24T06:08:08.398Z,8.50
2019-02-24T06:10:36.933Z,8.93
2019-02-24T06:13:05.480Z,8.60
2019-02-24T06:15:34.056Z,8.93
2019-02-24T06:18:02.520Z,8.00
2019-02-24T06:20:31.030Z,8.57
2019-02-24T06:22:59.560Z,8.23
2019-02-24T06:25:28.573Z,8.10
2019-02-24T06:27:57.100Z,8.20
2019-02-24T06:30:25.684Z,8.77
2019-02-24T06:32:54.264Z,8.53
2019-02-24T06:35:22.859Z,9.78
2019-02-24T06:37:52.684Z,9.40
2019-02-24T06:40:21.481Z,11.40
2019-02-24T06:42:50.008Z,10.53
2019-02-24T06:45:18.508Z,10.50
2019-02-24T06:47:47.004Z,7.90
2019-02-24T06:50:15.568Z,7.97
2019-02-24T06:52:44.421Z,8.00
2019-02-24T06:55:12.939Z,7.20
2019-02-24T06:57:41.932Z,6.77
2019-02-24T07:00:14.110Z,7.80
2019-02-24T07:02:39.336Z,6.97
2019-02-24T07:05:07.967Z,7.43
2019-02-24T07:07:36.463Z,7.73
2019-02-24T07:10:05.116Z,8.03
2019-02-24T07:12:34.468Z,8.80
2019-02-24T07:15:02.964Z,8.10
2019-02-24T07:17:31.972Z,7.87
2019-02-24T07:20:00.484Z,8.73
2019-02-24T07:22:29.168Z,8.63
2019-02-24T07:24:57.653Z,7.37
2019-02-24T07:27:26.480Z,7.50
2019-02-24T07:29:55.211Z,7.77
2019-02-24T07:32:24.027Z,7.10
2019-02-24T07:34:52.679Z,7.17
2019-02-24T07:37:21.524Z,7.20
2019-02-24T07:39:50.211Z,6.73
2019-02-24T07:42:18.931Z,7.90
2019-02-24T07:44:47.757Z,8.43
2019-02-24T07:47:16.899Z,7.07
2019-02-24T07:49:45.411Z,6.80
2019-02-24T07:52:13.923Z,6.60
2019-02-24T07:54:42.797Z,7.23
2019-02-24T07:57:11.567Z,6.83
2019-02-24T07:59:40.399Z,7.57
2019-02-24T08:02:09.247Z,7.20
2019-02-24T08:04:37.827Z,7.67
2019-02-24T08:07:06.432Z,7.70
2019-02-24T08:09:34.967Z,7.90
2019-02-24T08:12:03.727Z,8.10
2019-02-24T08:14:32.207Z,7.17
2019-02-24T08:17:00.699Z,10.47
2019-02-24T08:19:30.091Z,10.00
2019-02-24T08:21:58.139Z,9.80
2019-02-24T08:24:26.639Z,11.97
2019-02-24T08:26:55.115Z,11.80
2019-02-24T08:29:23.608Z,8.50
2019-02-24T08:31:52.152Z,8.70
2019-02-24T08:34:20.946Z,7.60
2019-02-24T08:36:49.460Z,7.47
2019-02-24T08:39:18.359Z,7.50
2019-02-24T08:41:46.811Z,8.10
2019-02-24T08:44:15.336Z,8.43
2019-02-24T08:46:43.847Z,9.90
2019-02-24T08:49:12.372Z,7.77
2019-02-24T08:51:40.931Z,10.03
2019-02-24T08:54:09.768Z,7.13
2019-02-24T08:56:38.862Z,7.12
2019-02-24T08:59:07.423Z,6.67
2019-02-24T09:01:35.995Z,6.67
2019-02-24T09:04:04.831Z,6.65
2019-02-24T09:06:33.455Z,7.17
2019-02-24T09:09:02.845Z,8.15
2019-02-24T09:11:31.822Z,6.67
2019-02-24T09:14:00.379Z,7.10
2019-02-24T09:16:28.897Z,6.80
2019-02-24T09:18:57.428Z,8.90
2019-02-24T09:21:25.954Z,7.08
2019-02-24T09:23:54.478Z,7.22
2019-02-24T09:26:22.966Z,7.42
2019-02-24T09:28:52.119Z,6.58
2019-02-24T09:31:20.639Z,7.35
2019-02-24T09:33:49.171Z,7.92
2019-02-24T09:36:18.415Z,6.45
2019-02-24T09:38:47.203Z,7.50
2019-02-24T09:41:16.007Z,6.90
2019-02-24T09:43:44.925Z,6.97
2019-02-24T09:46:13.471Z,7.33
2019-02-24T09:48:42.114Z,6.67
2019-02-24T09:51:10.650Z,7.58
2019-02-24T09:53:39.178Z,7.05
2019-02-24T09:56:07.728Z,6.75
2019-02-24T09:58:36.323Z,8.48
2019-02-24T10:01:10.675Z,6.80
2019-02-24T10:03:33.714Z,8.88
2019-02-24T10:06:02.250Z,8.15
2019-02-24T10:08:30.938Z,9.33
2019-02-24T10:10:59.434Z,7.72
2019-02-24T10:13:27.918Z,8.33
2019-02-24T10:15:56.431Z,10.67
2019-02-24T10:18:24.970Z,10.18
2019-02-24T10:20:53.878Z,10.40
2019-02-24T10:23:22.491Z,8.25
2019-02-24T10:25:51.211Z,9.65
2019-02-24T10:28:19.789Z,8.43
2019-02-24T10:30:48.750Z,8.25
2019-02-24T10:33:17.294Z,11.88
2019-02-24T10:35:45.870Z,10.45
2019-02-24T10:38:14.426Z,8.63
2019-02-24T10:40:42.950Z,10.18
2019-02-24T10:43:11.598Z,8.60
2019-02-24T10:45:40.090Z,9.50
2019-02-24T10:48:13.931Z,9.08
2019-02-24T10:50:37.766Z,10.05
2019-02-24T10:53:06.290Z,11.85
2019-02-24T10:55:35.103Z,11.48
2019-02-24T10:58:03.778Z,10.23
2019-02-24T11:00:32.678Z,10.95
2019-02-24T11:03:01.174Z,10.68
2019-02-24T11:05:29.759Z,9.43
2019-02-24T11:07:58.306Z,8.80
2019-02-24T11:10:27.182Z,10.00
2019-02-24T11:12:56.281Z,10.70
2019-02-24T11:15:24.830Z,12.93
2019-02-24T11:17:53.408Z,11.70
2019-02-24T11:20:22.014Z,11.25
2019-02-24T11:22:51.047Z,10.38
2019-02-24T11:25:19.769Z,10.85
2019-02-24T11:27:48.682Z,14.87
2019-02-24T11:30:17.171Z,13.78
2019-02-24T11:32:45.705Z,10.60
2019-02-24T11:35:14.275Z,11.12
2019-02-24T11:37:42.800Z,13.53
2019-02-24T11:40:11.354Z,14.45
2019-02-24T11:42:39.989Z,11.83
2019-02-24T11:45:08.702Z,13.22
2019-02-24T11:47:38.033Z,13.15
2019-02-24T11:50:07.346Z,12.55
2019-02-24T11:52:35.886Z,13.48
2019-02-24T11:55:04.469Z,12.40
2019-02-24T11:57:33.022Z,11.33
2019-02-24T12:00:02.226Z,12.10
2019-02-24T12:02:34.501Z,11.12
2019-02-24T12:04:59.381Z,9.08
2019-02-24T12:07:27.849Z,9.88
2019-02-24T12:09:56.441Z,8.90
2019-02-24T12:12:25.659Z,9.25
2019-02-24T12:14:54.177Z,10.60
2019-02-24T12:17:22.733Z,11.43
2019-02-24T12:19:51.437Z,11.08
2019-02-24T12:22:19.969Z,10.82
2019-02-24T12:24:48.578Z,10.93
2019-02-24T12:27:17.197Z,10.58
2019-02-24T12:29:45.781Z,10.45
2019-02-24T12:32:14.313Z,11.78
2019-02-24T12:34:42.925Z,11.18
2019-02-24T12:37:11.555Z,11.40
2019-02-24T12:39:40.325Z,11.03
2019-02-24T12:42:09.269Z,10.80
2019-02-24T12:44:37.937Z,11.05
2019-02-24T12:47:06.625Z,11.20
2019-02-24T12:49:35.513Z,11.12
2019-02-24T12:52:04.041Z,9.45
2019-02-24T12:54:32.681Z,11.35
2019-02-24T12:57:01.213Z,11.30
2019-02-24T12:59:29.743Z,11.22
2019-02-24T13:02:05.489Z,9.18
2019-02-24T13:04:28.859Z,12.50
2019-02-24T13:06:57.562Z,11.93
2019-02-24T13:09:24.762Z,12.25
2019-02-24T13:11:53.257Z,11.88
2019-02-24T13:14:21.809Z,12.60
2019-02-24T13:16:50.493Z,10.38
2019-02-24T13:19:19.605Z,12.30
2019-02-24T13:21:48.203Z,11.15
2019-02-24T13:24:16.705Z,11.03
2019-02-24T13:26:45.389Z,11.28
2019-02-24T13:29:14.025Z,10.97
2019-02-24T13:31:42.605Z,12.13
2019-02-24T13:34:11.293Z,10.32
2019-02-24T13:36:39.801Z,10.98
2019-02-24T13:39:08.461Z,10.35
2019-02-24T13:41:37.113Z,10.75
2019-02-24T13:44:05.701Z,10.58
2019-02-24T13:46:34.633Z,11.68
2019-02-24T13:49:03.180Z,12.35
2019-02-24T13:51:32.113Z,12.15
2019-02-24T13:54:00.960Z,10.53
2019-02-24T13:56:29.533Z,10.78
2019-02-24T13:58:58.469Z,10.53
2019-02-24T14:01:27.348Z,10.70
2019-02-24T14:03:55.881Z,9.98
2019-02-24T14:06:25.004Z,10.48
2019-02-24T14:08:53.532Z,10.80
2019-02-24T14:11:22.066Z,9.85
2019-02-24T14:13:50.620Z,10.63
2019-02-24T14:16:19.140Z,11.05
2019-02-24T14:18:47.676Z,11.12
2019-02-24T14:21:16.328Z,11.47
2019-02-24T14:23:44.860Z,10.78
2019-02-24T14:26:13.388Z,10.85
2019-02-24T14:28:42.048Z,10.45
2019-02-24T14:31:10.652Z,13.53
2019-02-24T14:33:39.477Z,10.78
2019-02-24T14:36:08.104Z,10.58
2019-02-24T14:38:36.649Z,11.97
2019-02-24T14:41:05.204Z,13.43
2019-02-24T14:43:35.345Z,11.50
2019-02-24T14:46:16.160Z,12.55
2019-02-24T14:48:45.121Z,11.90
2019-02-24T14:51:13.664Z,12.35
2019-02-24T14:53:42.784Z,10.55
2019-02-24T14:56:11.368Z,9.87
2019-02-24T14:58:40.268Z,9.73
2019-02-24T15:01:09.072Z,9.53
2019-02-24T15:03:37.628Z,9.18
2019-02-24T15:06:06.702Z,9.10
2019-02-24T15:08:35.584Z,9.05
2019-02-24T15:11:05.025Z,9.90
2019-02-24T15:13:33.897Z,9.78
2019-02-24T15:16:02.681Z,10.10
2019-02-24T15:18:31.651Z,9.55
2019-02-24T15:21:00.600Z,9.50
2019-02-24T15:23:29.116Z,9.58
2019-02-24T15:25:57.668Z,8.18
2019-02-24T15:28:26.624Z,8.10
2019-02-24T15:30:55.465Z,6.87
2019-02-24T15:33:24.828Z,6.80
2019-02-24T15:35:53.848Z,6.95
2019-02-24T15:38:22.867Z,6.67
2019-02-24T15:40:51.792Z,6.72
2019-02-24T15:43:20.408Z,7.23
2019-02-24T15:45:49.155Z,7.47
2019-02-24T15:48:17.691Z,8.90
2019-02-24T15:50:46.223Z,8.65
2019-02-24T15:53:14.849Z,7.53
2019-02-24T15:55:43.374Z,7.42
2019-02-24T15:58:11.933Z,7.22
2019-02-24T16:00:40.896Z,8.60
2019-02-24T16:03:10.220Z,7.90
2019-02-24T16:05:38.828Z,9.03
2019-02-24T16:08:07.447Z,13.45
2019-02-24T16:10:36.415Z,12.30
2019-02-24T16:13:04.971Z,11.12
2019-02-24T16:15:33.863Z,10.43
2019-02-24T16:18:02.855Z,10.65
2019-02-24T16:20:31.703Z,9.38
2019-02-24T16:23:00.581Z,9.30
2019-02-24T16:25:29.167Z,9.00
2019-02-24T16:27:57.847Z,7.85
2019-02-24T16:30:26.795Z,7.97
2019-02-24T16:32:55.339Z,6.92
2019-02-24T16:35:23.911Z,8.00
2019-02-24T16:37:52.763Z,7.40
2019-02-24T16:40:21.424Z,8.20
2019-02-24T16:42:50.001Z,8.03
2019-02-24T16:45:18.693Z,6.95
2019-02-24T16:47:47.607Z,7.65
2019-02-24T16:50:16.735Z,8.03
2019-02-24T16:52:45.311Z,7.87
2019-02-24T16:55:14.835Z,8.00
2019-02-24T16:57:43.455Z,9.13
2019-02-24T17:00:13.985Z,7.97
2019-02-24T17:02:42.823Z,8.63
2019-02-24T17:05:12.000Z,10.87
2019-02-24T17:07:40.588Z,10.70
2019-02-24T17:10:10.747Z,12.05
2019-02-24T17:12:39.368Z,11.43
2019-02-24T17:15:08.765Z,12.30
2019-02-24T17:17:37.431Z,9.55
2019-02-24T17:20:07.251Z,12.68
2019-02-24T17:22:35.823Z,12.10
2019-02-24T17:25:05.216Z,12.47
2019-02-24T17:27:33.772Z,13.38
2019-02-24T17:30:03.059Z,13.62
2019-02-24T17:32:31.587Z,14.13
2019-02-24T17:35:00.242Z,14.68
2019-02-24T17:37:45.774Z,14.07
2019-02-24T17:40:14.427Z,16.73
2019-02-24T17:42:43.252Z,18.17
2019-02-24T17:45:12.367Z,17.75
2019-02-24T17:47:41.355Z,18.80
2019-02-24T17:50:11.022Z,16.52
2019-02-24T17:52:39.627Z,16.57
2019-02-24T17:55:09.814Z,15.55
2019-02-24T17:57:38.814Z,16.93
2019-02-24T18:00:12.227Z,16.27
2019-02-24T18:02:40.884Z,17.37
2019-02-24T18:05:09.458Z,19.52
2019-02-24T18:07:38.017Z,20.90
2019-02-24T18:10:06.642Z,20.15
2019-02-24T18:12:35.522Z,20.40
2019-02-24T18:15:05.826Z,21.00
2019-02-24T18:17:34.371Z,19.87
2019-02-24T18:20:02.930Z,19.07
2019-02-24T18:22:31.495Z,19.65
2019-02-24T18:25:03.159Z,18.52
2019-02-24T18:27:28.614Z,17.63
2019-02-24T18:29:57.659Z,20.90
2019-02-24T18:32:26.858Z,25.57
2019-02-24T18:34:55.339Z,24.10
2019-02-24T18:37:24.258Z,21.70
2019-02-24T18:39:52.926Z,24.00
2019-02-24T18:42:21.827Z,23.37
2019-02-24T18:44:50.901Z,24.70
2019-02-24T18:47:19.433Z,22.22
2019-02-24T18:49:48.358Z,22.87
2019-02-24T18:52:16.938Z,21.93
2019-02-24T18:54:45.578Z,23.18
2019-02-24T18:57:15.880Z,23.77
2019-02-24T18:59:43.021Z,22.30
2019-02-24T19:02:11.910Z,22.80
2019-02-24T19:04:40.810Z,24.72
2019-02-24T19:07:09.434Z,25.03
2019-02-24T19:09:37.966Z,24.43
2019-02-24T19:12:06.998Z,22.93
2019-02-24T19:14:35.626Z,23.03
2019-02-24T19:17:04.594Z,24.68
2019-02-24T19:19:33.522Z,24.03
2019-02-24T19:22:02.427Z,22.07
2019-02-24T19:24:31.028Z,22.85
2019-02-24T19:26:59.864Z,23.18
2019-02-24T19:29:28.627Z,22.03
2019-02-24T19:31:57.196Z,24.37
2019-02-24T19:34:25.884Z,23.73
2019-02-24T19:36:54.422Z,24.63
2019-02-24T19:39:23.077Z,25.70
2019-02-24T19:41:52.538Z,25.77
2019-02-24T19:44:21.117Z,27.47
2019-02-24T19:46:50.114Z,26.90
2019-02-24T19:49:18.761Z,27.90
2019-02-24T19:51:47.754Z,30.20
2019-02-24T19:54:16.281Z,28.80
2019-02-24T19:56:45.174Z,29.43
2019-02-24T19:59:13.693Z,27.82
2019-02-24T20:01:42.854Z,33.23
2019-02-24T20:04:15.993Z,31.50
2019-02-24T20:06:40.963Z,33.92
2019-02-24T20:09:09.446Z,32.67
2019-02-24T20:11:38.042Z,33.17
2019-02-24T20:14:06.662Z,34.38
2019-02-24T20:16:35.370Z,33.43
2019-02-24T20:19:05.193Z,32.00
2019-02-24T20:21:34.361Z,31.27
2019-02-24T20:24:02.922Z,31.27
2019-02-24T20:26:31.510Z,31.93
2019-02-24T20:29:00.054Z,30.73
2019-02-24T20:31:28.925Z,29.97
2019-02-24T20:33:57.486Z,29.43
2019-02-24T20:36:26.078Z,30.40
2019-02-24T20:38:54.630Z,28.47
2019-02-24T20:41:23.498Z,28.07
2019-02-24T20:43:52.177Z,28.80
2019-02-24T20:46:20.962Z,27.13
2019-02-24T20:48:49.681Z,29.30
2019-02-24T20:51:18.218Z,27.10
2019-02-24T20:53:47.158Z,28.03
2019-02-24T20:56:16.393Z,29.40
2019-02-24T20:58:45.394Z,29.67
2019-02-24T21:01:14.185Z,28.03
2019-02-24T21:03:43.093Z,30.43
2019-02-24T21:06:11.649Z,29.47
2019-02-24T21:08:40.657Z,30.77
2019-02-24T21:11:09.330Z,30.60
2019-02-24T21:13:38.171Z,28.77
2019-02-24T21:16:06.690Z,31.40
2019-02-24T21:18:35.258Z,31.97
2019-02-24T21:21:03.842Z,29.50
2019-02-24T21:23:32.662Z,29.33
2019-02-24T21:26:01.194Z,30.77
2019-02-24T21:28:29.733Z,34.30
2019-02-24T21:30:58.386Z,37.90
2019-02-24T21:33:26.962Z,38.77
2019-02-24T21:35:56.014Z,35.28
2019-02-24T21:38:24.990Z,36.90
2019-02-24T21:41:07.946Z,37.73
2019-02-24T21:43:37.185Z,38.20
2019-02-24T21:46:05.782Z,38.20
2019-02-24T21:48:34.324Z,35.80
2019-02-24T21:51:03.020Z,37.60
2019-02-24T21:53:32.454Z,43.90
2019-02-24T21:56:01.806Z,46.03
2019-02-24T21:58:30.830Z,40.83
2019-02-24T22:00:59.586Z,40.27
2019-02-24T22:03:28.189Z,38.50
2019-02-24T22:05:57.016Z,39.50
2019-02-24T22:08:25.853Z,40.40
2019-02-24T22:10:54.805Z,40.37
2019-02-24T22:13:23.491Z,40.03
2019-02-24T22:15:52.252Z,37.47
2019-02-24T22:18:20.781Z,37.37
2019-02-24T22:20:49.353Z,36.87
2019-02-24T22:23:17.821Z,36.53
2019-02-24T22:25:46.353Z,35.90
2019-02-24T22:28:14.889Z,33.17
2019-02-24T22:30:43.381Z,33.60
2019-02-24T22:33:12.042Z,33.73
2019-02-24T22:35:40.685Z,30.73
2019-02-24T22:38:09.142Z,30.53
2019-02-24T22:40:37.993Z,28.63
2019-02-24T22:43:07.057Z,27.80
2019-02-24T22:45:35.569Z,25.03
2019-02-24T22:48:04.776Z,25.83
2019-02-24T22:50:33.349Z,24.53
2019-02-24T22:53:02.025Z,23.63
2019-02-24T22:55:30.613Z,21.33
2019-02-24T22:57:59.185Z,19.67
2019-02-24T23:00:39.725Z,19.27
2019-02-24T23:03:09.608Z,17.60
2019-02-24T23:05:38.228Z,17.93
2019-02-24T23:08:08.136Z,17.33
2019-02-24T23:10:36.843Z,16.30
2019-02-24T23:13:06.135Z,15.93
2019-02-24T23:15:35.189Z,16.30
2019-02-24T23:18:04.091Z,16.37
2019-02-24T23:20:33.888Z,16.77
2019-02-24T23:23:02.855Z,18.37
2019-02-24T23:25:32.199Z,17.33
2019-02-24T23:28:00.795Z,18.97
2019-02-24T23:30:29.551Z,18.60
2019-02-24T23:32:58.395Z,18.93
2019-02-24T23:35:29.151Z,18.73
2019-02-24T23:37:57.991Z,19.00
2019-02-24T23:40:26.548Z,19.17
2019-02-24T23:42:55.188Z,19.30
2019-02-24T23:45:23.759Z,20.50
2019-02-24T23:47:52.335Z,20.67
2019-02-24T23:50:21.503Z,20.20
2019-02-24T23:52:50.293Z,21.07
2019-02-24T23:55:18.836Z,19.47
2019-02-24T23:57:48.044Z,18.57
